Time;durP1;ratioP1;P1;durP2;ratioP2;P2;SDS_P1;SDS_P2;PMS_P1;PMS_P2;Temp;Humidity;BMP_temperature;BMP_pressure;BME280_temperature;BME280_humidity;BME280_pressure;Samples;Min_cycle;Max_cycle;Signal;HPM_P1;HPM_P2
2022/03/20 00:02:24;;;;;;;15.37;11.67;;;6.30;91.20;;;;;;5014941;28;20273;-62
2022/03/20 00:04:53;;;;;;;16.13;11.27;;;6.20;91.20;;;;;;5015104;28;20729;-62
2022/03/20 00:07:21;;;;;;;15.53;11.13;;;6.10;91.30;;;;;;5014980;28;20297;-62
2022/03/20 00:09:51;;;;;;;15.07;11.50;;;6.10;90.90;;;;;;5014808;28;20206;-61
2022/03/20 00:12:18;;;;;;;16.53;11.30;;;6.30;90.40;;;;;;5014036;28;20206;-63
2022/03/20 00:14:45;;;;;;;17.43;11.23;;;6.40;90.20;;;;;;5016118;28;20599;-61
2022/03/20 00:17:12;;;;;;;15.87;11.10;;;6.60;90.00;;;;;;5015031;28;20226;-61
2022/03/20 00:19:39;;;;;;;13.90;11.03;;;6.60;90.10;;;;;;5014839;28;20217;-61
2022/03/20 00:22:06;;;;;;;15.13;10.97;;;6.70;90.50;;;;;;5014893;28;20235;-62
2022/03/20 00:24:34;;;;;;;15.80;11.63;;;6.70;90.40;;;;;;5016390;28;20214;-62
2022/03/20 00:27:01;;;;;;;15.53;11.40;;;6.80;89.40;;;;;;5015294;28;20211;-62
2022/03/20 00:29:28;;;;;;;15.80;11.40;;;6.80;89.00;;;;;;5014799;28;20207;-61
2022/03/20 00:31:55;;;;;;;20.07;12.83;;;6.70;88.90;;;;;;5014261;28;20223;-61
2022/03/20 00:34:22;;;;;;;14.43;10.63;;;6.80;89.00;;;;;;5014426;28;20544;-61
2022/03/20 00:36:49;;;;;;;18.17;11.33;;;6.90;88.90;;;;;;5014311;28;20207;-63
2022/03/20 00:39:15;;;;;;;16.90;10.80;;;7.00;89.10;;;;;;5014617;28;20203;-63
2022/03/20 00:41:43;;;;;;;15.30;11.23;;;6.90;88.80;;;;;;5013765;28;20723;-63
2022/03/20 00:44:11;;;;;;;16.33;11.10;;;7.00;89.10;;;;;;5014546;28;20210;-63
2022/03/20 00:46:38;;;;;;;14.97;11.17;;;6.90;88.50;;;;;;5014242;28;20261;-63
2022/03/20 00:49:05;;;;;;;14.33;10.53;;;6.90;88.70;;;;;;5014343;28;20305;-63
2022/03/20 00:51:31;;;;;;;14.80;10.90;;;6.80;89.40;;;;;;5013961;28;20326;-62
2022/03/20 00:53:58;;;;;;;14.77;11.03;;;6.70;90.00;;;;;;5014345;28;20207;-62
2022/03/20 00:56:25;;;;;;;16.27;11.30;;;6.80;90.20;;;;;;5013943;28;20272;-62
2022/03/20 00:58:53;;;;;;;15.50;11.13;;;6.90;90.20;;;;;;5014149;28;20318;-62
2022/03/20 01:01:20;;;;;;;15.90;11.23;;;7.00;90.30;;;;;;5013629;28;20234;-62
2022/03/20 01:03:46;;;;;;;13.93;10.70;;;7.00;89.90;;;;;;5013940;28;20346;-62
2022/03/20 01:06:13;;;;;;;18.27;12.20;;;7.10;89.90;;;;;;5014005;28;20203;-62
2022/03/20 01:08:40;;;;;;;17.43;11.70;;;7.20;89.70;;;;;;5013893;28;20728;-61
2022/03/20 01:11:08;;;;;;;16.03;10.90;;;7.10;88.70;;;;;;5013808;28;20231;-62
2022/03/20 01:13:36;;;;;;;15.80;11.43;;;7.00;88.70;;;;;;5013779;28;20240;-63
2022/03/20 01:16:06;;;;;;;16.07;11.53;;;7.00;89.10;;;;;;5013643;28;20644;-63
2022/03/20 01:18:32;;;;;;;15.33;11.43;;;7.10;89.50;;;;;;5013618;28;20207;-63
2022/03/20 01:20:59;;;;;;;19.17;11.93;;;7.10;89.30;;;;;;5013998;28;20595;-63
2022/03/20 01:23:26;;;;;;;15.27;11.30;;;7.20;89.30;;;;;;5013068;28;20570;-63
2022/03/20 01:25:53;;;;;;;16.07;11.67;;;7.20;89.60;;;;;;5013272;28;20663;-63
2022/03/20 01:28:22;;;;;;;15.43;11.63;;;7.30;89.70;;;;;;5013463;28;20207;-63
2022/03/20 01:30:48;;;;;;;16.17;11.07;;;7.20;89.60;;;;;;5013447;28;20223;-62
2022/03/20 01:33:17;;;;;;;17.20;12.47;;;7.30;89.60;;;;;;5013274;28;20249;-62
2022/03/20 01:35:44;;;;;;;17.97;11.43;;;7.30;89.30;;;;;;5013448;28;20298;-62
2022/03/20 01:38:15;;;;;;;15.10;11.80;;;7.40;88.90;;;;;;5013374;28;20211;-61
2022/03/20 01:40:42;;;;;;;15.83;11.80;;;7.40;88.70;;;;;;5013608;28;20235;-61
2022/03/20 01:43:09;;;;;;;18.20;12.40;;;7.40;88.80;;;;;;5013001;28;20207;-61
2022/03/20 01:45:36;;;;;;;16.10;11.97;;;7.30;88.70;;;;;;5013047;28;20206;-61
2022/03/20 01:48:03;;;;;;;16.00;12.07;;;7.20;88.70;;;;;;5013301;28;20213;-61
2022/03/20 01:50:32;;;;;;;15.70;11.13;;;7.20;89.10;;;;;;5012995;28;20711;-61
2022/03/20 01:53:00;;;;;;;18.50;12.40;;;7.30;89.20;;;;;;5012800;28;20207;-61
2022/03/20 01:55:28;;;;;;;14.87;11.77;;;7.30;89.10;;;;;;5012914;28;20310;-61
2022/03/20 01:57:56;;;;;;;18.87;12.37;;;7.30;89.20;;;;;;5012877;28;20245;-61
2022/03/20 02:00:25;;;;;;;15.83;12.23;;;7.30;89.30;;;;;;5013058;28;20280;-61
2022/03/20 02:02:52;;;;;;;14.33;11.23;;;7.30;89.70;;;;;;5012918;28;20726;-61
2022/03/20 02:05:21;;;;;;;16.53;11.87;;;7.30;89.80;;;;;;5013261;28;20199;-61
2022/03/20 02:07:49;;;;;;;17.53;11.43;;;7.30;89.70;;;;;;5013051;28;20280;-61
2022/03/20 02:10:16;;;;;;;18.53;11.57;;;7.40;90.00;;;;;;5012783;28;20230;-61
2022/03/20 02:12:44;;;;;;;15.13;11.70;;;7.40;90.20;;;;;;5012606;28;20211;-61
2022/03/20 02:15:13;;;;;;;15.40;11.63;;;7.40;89.70;;;;;;5012795;28;20265;-61
2022/03/20 02:17:41;;;;;;;13.90;11.60;;;7.40;89.60;;;;;;5012683;28;20258;-61
2022/03/20 02:20:09;;;;;;;16.93;12.07;;;7.30;89.40;;;;;;5012641;28;20223;-61
2022/03/20 02:22:42;;;;;;;18.70;12.30;;;7.30;89.20;;;;;;5012327;28;20257;-61
2022/03/20 02:25:10;;;;;;;16.17;11.60;;;7.20;89.00;;;;;;5012888;28;20214;-62
2022/03/20 02:27:39;;;;;;;14.90;11.20;;;7.20;89.30;;;;;;5012524;28;20241;-60
2022/03/20 02:30:12;;;;;;;16.73;11.87;;;7.20;89.30;;;;;;5012428;28;20237;-60
2022/03/20 02:32:41;;;;;;;18.57;12.73;;;7.30;89.60;;;;;;5012331;28;20260;-60
2022/03/20 02:35:14;;;;;;;15.70;11.80;;;7.30;89.80;;;;;;5011635;28;20300;-62
2022/03/20 02:37:47;;;;;;;17.67;12.87;;;7.30;89.90;;;;;;5012207;28;20211;-62
2022/03/20 02:40:15;;;;;;;18.50;12.57;;;7.20;89.90;;;;;;5012406;28;20230;-62
2022/03/20 02:42:44;;;;;;;16.50;11.00;;;7.10;90.10;;;;;;5012324;28;20218;-62
2022/03/20 02:45:13;;;;;;;15.23;11.90;;;7.10;90.20;;;;;;5013668;28;20206;-62
2022/03/20 02:47:42;;;;;;;16.10;11.77;;;7.20;90.20;;;;;;5012509;28;20694;-62
2022/03/20 02:50:12;;;;;;;15.80;12.40;;;7.20;90.20;;;;;;5012141;28;20234;-62
2022/03/20 02:52:52;;;;;;;17.30;12.60;;;7.30;90.20;;;;;;5012177;28;20210;-62
2022/03/20 02:55:21;;;;;;;19.40;12.50;;;7.30;90.10;;;;;;5012047;28;20679;-62
2022/03/20 02:57:48;;;;;;;17.63;11.87;;;7.20;89.50;;;;;;5012116;28;20206;-62
2022/03/20 03:00:21;;;;;;;17.50;12.63;;;7.20;89.20;;;;;;5012131;28;20600;-62
2022/03/20 03:02:48;;;;;;;16.20;12.00;;;7.10;90.00;;;;;;5012074;28;20207;-62
2022/03/20 03:05:17;;;;;;;16.83;12.20;;;7.10;90.20;;;;;;5012749;28;20211;-61
2022/03/20 03:13:17;;;;;;;15.73;12.10;;;7.00;90.40;;;;;;5011858;28;20214;-60
2022/03/20 03:15:44;;;;;;;17.20;11.97;;;6.90;90.70;;;;;;5012075;28;20223;-61
2022/03/20 03:18:11;;;;;;;17.50;12.30;;;6.80;90.70;;;;;;5012089;28;20288;-61
2022/03/20 03:20:38;;;;;;;17.03;13.60;;;6.70;90.60;;;;;;5012050;28;20258;-61
2022/03/20 03:23:05;;;;;;;21.33;13.10;;;6.70;90.90;;;;;;5011732;28;20268;-61
2022/03/20 03:25:34;;;;;;;17.77;13.40;;;6.60;91.10;;;;;;5011805;28;20211;-61
2022/03/20 03:28:01;;;;;;;19.03;13.30;;;6.50;91.20;;;;;;5012151;28;20563;-61
2022/03/20 03:30:28;;;;;;;19.17;13.43;;;6.40;91.40;;;;;;5011865;28;20710;-61
2022/03/20 03:32:56;;;;;;;18.70;13.13;;;6.30;91.70;;;;;;5011781;28;20261;-61
2022/03/20 03:38:08;;;;;;;16.67;13.17;;;6.40;91.80;;;;;;5012441;28;20206;-61
2022/03/20 03:40:37;;;;;;;18.67;13.80;;;6.50;91.90;;;;;;5012274;28;20247;-61
2022/03/20 03:43:04;;;;;;;20.80;13.50;;;6.50;91.90;;;;;;5012074;28;20710;-61
2022/03/20 03:45:31;;;;;;;16.10;12.83;;;6.50;92.00;;;;;;5013501;28;20202;-61
2022/03/20 03:47:57;;;;;;;22.13;14.27;;;6.60;92.00;;;;;;5015854;28;20211;-61
2022/03/20 03:50:24;;;;;;;20.53;13.90;;;6.70;91.90;;;;;;5015692;28;20284;-61
2022/03/20 03:52:51;;;;;;;19.90;13.63;;;6.70;91.90;;;;;;5015656;28;20268;-61
2022/03/20 03:55:18;;;;;;;19.00;14.00;;;6.80;91.90;;;;;;5016101;28;20210;-61
2022/03/20 03:57:48;;;;;;;19.30;14.10;;;6.70;92.00;;;;;;5015369;28;20284;-61
2022/03/20 04:00:15;;;;;;;19.37;13.57;;;6.70;92.10;;;;;;5015147;28;20649;-61
2022/03/20 04:02:42;;;;;;;18.80;13.70;;;6.80;92.10;;;;;;5015010;28;20298;-61
2022/03/20 04:05:10;;;;;;;18.23;13.40;;;6.70;92.30;;;;;;5015153;28;20671;-61
2022/03/20 04:07:36;;;;;;;18.60;13.50;;;6.70;92.50;;;;;;5015213;28;20209;-61
2022/03/20 04:10:05;;;;;;;19.90;14.80;;;6.80;92.50;;;;;;5015140;28;20210;-61
2022/03/20 04:12:33;;;;;;;20.47;14.17;;;6.80;92.30;;;;;;5014812;28;20335;-61
2022/03/20 04:15:02;;;;;;;20.60;14.90;;;6.90;92.30;;;;;;5015022;28;20210;-61
2022/03/20 04:17:30;;;;;;;22.37;15.33;;;6.90;92.30;;;;;;5014904;28;20227;-60
2022/03/20 04:19:58;;;;;;;22.10;15.57;;;7.00;92.30;;;;;;5014963;28;20298;-60
2022/03/20 04:22:25;;;;;;;20.80;14.77;;;7.00;92.40;;;;;;5014619;28;20206;-62
2022/03/20 04:24:51;;;;;;;18.50;14.07;;;7.00;92.50;;;;;;5014893;28;20629;-61
2022/03/20 04:27:18;;;;;;;20.27;15.03;;;6.90;92.60;;;;;;5014784;28;20207;-62
2022/03/20 04:29:45;;;;;;;20.93;15.03;;;7.00;92.60;;;;;;5014591;28;20686;-61
2022/03/20 04:32:14;;;;;;;19.10;15.17;;;6.90;92.70;;;;;;5014475;28;20218;-61
2022/03/20 04:34:41;;;;;;;22.67;15.30;;;6.70;93.00;;;;;;5015631;28;20631;-61
2022/03/20 04:37:09;;;;;;;20.17;15.57;;;6.70;93.20;;;;;;5014991;28;20231;-61
2022/03/20 04:39:37;;;;;;;20.27;15.23;;;6.60;93.30;;;;;;5014970;28;20261;-61
2022/03/20 04:42:05;;;;;;;20.33;15.93;;;6.60;93.40;;;;;;5014826;28;20292;-62
2022/03/20 04:44:32;;;;;;;19.93;15.07;;;6.60;93.60;;;;;;5015415;28;20482;-61
2022/03/20 04:46:59;;;;;;;21.83;15.83;;;6.60;93.60;;;;;;5014692;28;20214;-61
2022/03/20 05:00:24;;;;;;;20.93;16.00;;;6.40;93.90;;;;;;5015591;28;20276;-61
2022/03/20 05:02:51;;;;;;;23.33;16.97;;;6.30;94.10;;;;;;5014995;28;20261;-61
2022/03/20 05:05:19;;;;;;;23.50;16.07;;;6.40;94.10;;;;;;5014825;28;20211;-61
2022/03/20 05:07:46;;;;;;;21.40;16.40;;;6.50;94.10;;;;;;5014279;28;20206;-61
2022/03/20 05:15:41;;;;;;;21.93;16.33;;;6.60;94.20;;;;;;5014978;28;20202;-61
2022/03/20 05:18:08;;;;;;;22.93;16.07;;;6.50;94.20;;;;;;5014962;28;20235;-62
2022/03/20 05:20:36;;;;;;;20.80;15.87;;;6.50;94.40;;;;;;5013894;28;20280;-62
2022/03/20 05:23:03;;;;;;;21.07;16.43;;;6.60;94.30;;;;;;5013769;28;20211;-62
2022/03/20 05:25:30;;;;;;;24.53;15.83;;;6.60;94.20;;;;;;5013825;28;20206;-60
2022/03/20 05:27:57;;;;;;;21.10;15.60;;;6.70;94.10;;;;;;5013405;28;20619;-60
2022/03/20 05:30:24;;;;;;;22.93;16.10;;;6.90;94.10;;;;;;5013289;28;20231;-60
2022/03/20 05:32:51;;;;;;;21.63;15.70;;;7.00;93.90;;;;;;5013439;28;20333;-61
2022/03/20 05:35:18;;;;;;;21.10;16.43;;;7.00;93.80;;;;;;5013559;28;20361;-61
2022/03/20 05:37:47;;;;;;;22.97;16.37;;;7.00;93.80;;;;;;5013334;28;20250;-61
2022/03/20 05:40:15;;;;;;;21.73;16.17;;;7.00;93.80;;;;;;5013304;28;20333;-61
2022/03/20 05:42:42;;;;;;;22.70;16.50;;;7.00;93.90;;;;;;5013052;28;20207;-60
2022/03/20 05:45:11;;;;;;;23.93;15.43;;;6.90;94.10;;;;;;5013191;28;20261;-61
2022/03/20 05:47:39;;;;;;;21.30;16.10;;;6.90;94.00;;;;;;5013392;28;20203;-61
2022/03/20 05:50:08;;;;;;;24.57;15.60;;;6.80;94.10;;;;;;5012931;28;20226;-60
2022/03/20 05:52:35;;;;;;;22.90;16.43;;;6.90;94.00;;;;;;5013031;28;20207;-62
2022/03/20 05:55:04;;;;;;;21.37;16.00;;;7.10;93.90;;;;;;5013195;28;20320;-61
2022/03/20 06:00:24;;;;;;;23.00;16.83;;;7.30;93.60;;;;;;5013618;28;20221;-61
2022/03/20 06:02:51;;;;;;;20.30;15.47;;;7.40;93.50;;;;;;5013933;28;20215;-61
2022/03/20 06:05:18;;;;;;;24.17;16.27;;;7.50;93.30;;;;;;5013256;28;20249;-61
2022/03/20 06:07:47;;;;;;;23.90;16.63;;;7.60;93.30;;;;;;5012991;28;20646;-61
2022/03/20 06:10:16;;;;;;;23.53;16.87;;;7.60;93.30;;;;;;5012830;28;20234;-61
2022/03/20 06:12:42;;;;;;;22.30;16.20;;;7.60;93.30;;;;;;5012806;28;20207;-61
2022/03/20 06:15:09;;;;;;;23.23;16.53;;;7.70;93.10;;;;;;5013104;28;20207;-60
2022/03/20 06:17:41;;;;;;;21.83;16.47;;;7.90;93.00;;;;;;5012865;28;20239;-62
2022/03/20 06:20:09;;;;;;;22.10;16.57;;;8.00;92.80;;;;;;5012493;28;20281;-61
2022/03/20 06:22:37;;;;;;;19.63;15.53;;;8.20;92.70;;;;;;5012786;28;20260;-61
2022/03/20 06:25:07;;;;;;;22.47;15.90;;;8.30;92.50;;;;;;5013002;28;20211;-60
2022/03/20 06:27:46;;;;;;;22.97;16.97;;;8.20;92.50;;;;;;5013350;28;20238;-60
2022/03/20 06:30:14;;;;;;;20.40;16.13;;;8.20;92.50;;;;;;5013535;28;20226;-61
2022/03/20 06:32:41;;;;;;;25.23;17.23;;;8.40;92.30;;;;;;5012882;28;20214;-60
2022/03/20 06:35:10;;;;;;;21.83;16.83;;;8.70;92.00;;;;;;5013032;28;20238;-60
2022/03/20 06:37:38;;;;;;;20.37;15.97;;;9.00;91.80;;;;;;5012856;28;20312;-60
2022/03/20 06:40:06;;;;;;;20.53;16.23;;;9.20;91.30;;;;;;5012758;28;20203;-60
2022/03/20 06:42:33;;;;;;;21.73;15.57;;;9.30;91.10;;;;;;5012785;28;20215;-61
2022/03/20 06:45:01;;;;;;;23.30;15.50;;;9.30;91.20;;;;;;5012651;28;20210;-62
2022/03/20 06:47:31;;;;;;;20.20;14.37;;;9.30;91.00;;;;;;5012265;28;20202;-61
2022/03/20 06:49:59;;;;;;;21.67;15.87;;;9.30;90.90;;;;;;5012446;28;20238;-60
2022/03/20 06:52:28;;;;;;;20.87;15.93;;;9.20;91.20;;;;;;5012268;28;20202;-60
2022/03/20 06:54:56;;;;;;;21.10;16.23;;;9.20;91.10;;;;;;5012314;28;20214;-61
2022/03/20 06:57:23;;;;;;;25.77;16.20;;;9.50;91.00;;;;;;5012328;28;20223;-60
2022/03/20 06:59:51;;;;;;;22.70;16.00;;;10.10;90.00;;;;;;5012137;28;20203;-61
2022/03/20 07:02:19;;;;;;;19.17;14.90;;;10.60;88.20;;;;;;5012276;28;20617;-60
2022/03/20 07:04:47;;;;;;;21.07;15.90;;;11.20;87.10;;;;;;5012169;28;20297;-61
2022/03/20 07:07:14;;;;;;;20.23;16.23;;;11.50;85.70;;;;;;5012013;28;20199;-60
2022/03/20 07:09:41;;;;;;;20.40;15.73;;;12.00;85.00;;;;;;5011931;28;20759;-60
2022/03/20 07:12:09;;;;;;;19.93;15.23;;;12.10;83.80;;;;;;5011591;28;20719;-60
2022/03/20 07:14:36;;;;;;;18.40;14.60;;;12.30;82.30;;;;;;5011824;28;20648;-60
2022/03/20 07:17:03;;;;;;;20.80;16.07;;;12.30;82.30;;;;;;5011905;28;20237;-60
2022/03/20 07:19:32;;;;;;;19.90;15.90;;;12.30;82.30;;;;;;5012067;28;20257;-60
2022/03/20 07:21:59;;;;;;;21.33;16.13;;;12.40;82.30;;;;;;5015277;28;20718;-59
2022/03/20 07:24:26;;;;;;;19.57;14.87;;;12.60;81.70;;;;;;5015763;28;20218;-59
2022/03/20 07:29:34;;;;;;;18.00;14.80;;;13.50;79.20;;;;;;4993033;28;20203;-59
2022/03/20 07:32:02;;;;;;;21.20;15.57;;;13.50;79.10;;;;;;5015368;28;20223;-59
2022/03/20 07:34:30;;;;;;;18.37;15.03;;;13.60;78.20;;;;;;5015870;28;20207;-59
2022/03/20 07:36:58;;;;;;;21.50;16.57;;;13.30;79.00;;;;;;5015485;28;20234;-59
2022/03/20 07:39:25;;;;;;;22.63;15.67;;;13.50;78.00;;;;;;5015511;28;20253;-59
2022/03/20 07:41:52;;;;;;;18.87;15.77;;;13.50;78.00;;;;;;5047345;22;20226;-57
2022/03/20 07:44:18;;;;;;;21.53;15.97;;;13.80;77.20;;;;;;5028202;28;20213;-57
2022/03/20 07:46:45;;;;;;;22.43;16.23;;;13.80;76.80;;;;;;5036057;28;20221;-57
2022/03/20 07:49:12;;;;;;;21.50;15.10;;;13.80;77.10;;;;;;5035404;28;20206;-57
2022/03/20 07:51:38;;;;;;;21.87;15.97;;;13.70;76.90;;;;;;5035411;28;20230;-57
2022/03/20 07:54:07;;;;;;;22.17;16.07;;;13.70;76.80;;;;;;5035095;28;20584;-57
2022/03/20 07:56:35;;;;;;;21.50;15.23;;;13.40;77.80;;;;;;5035574;28;20213;-58
2022/03/20 07:59:05;;;;;;;21.10;15.97;;;13.60;77.30;;;;;;5035350;28;20249;-57
2022/03/20 08:01:32;;;;;;;18.73;16.23;;;13.70;76.90;;;;;;5035175;28;20233;-57
2022/03/20 08:03:59;;;;;;;19.27;16.10;;;13.30;76.90;;;;;;5035009;28;20260;-57
2022/03/20 08:06:26;;;;;;;19.83;16.27;;;13.00;78.20;;;;;;5035297;28;20241;-57
2022/03/20 08:08:53;;;;;;;32.70;23.57;;;12.70;79.00;;;;;;5035091;28;20661;-57
2022/03/20 08:11:21;;;;;;;21.73;16.50;;;12.40;79.40;;;;;;5035087;28;20670;-57
2022/03/20 08:13:47;;;;;;;18.17;14.87;;;12.30;80.20;;;;;;5034904;28;20233;-57
2022/03/20 08:16:15;;;;;;;19.83;15.27;;;11.90;80.50;;;;;;5034888;28;20264;-57
2022/03/20 08:18:43;;;;;;;21.97;17.00;;;11.60;81.10;;;;;;5034994;28;20227;-57
2022/03/20 08:21:11;;;;;;;21.77;16.43;;;11.30;82.20;;;;;;5034840;28;20284;-57
2022/03/20 08:23:38;;;;;;;20.17;15.90;;;11.20;83.00;;;;;;5034825;28;20283;-57
2022/03/20 08:26:07;;;;;;;18.87;16.27;;;11.30;82.90;;;;;;5034910;28;20210;-57
2022/03/20 08:28:37;;;;;;;19.13;15.90;;;11.30;82.70;;;;;;5034725;28;20553;-57
2022/03/20 08:31:03;;;;;;;21.70;16.73;;;11.40;83.20;;;;;;5034346;28;20314;-57
2022/03/20 08:33:31;;;;;;;20.13;16.03;;;11.50;82.30;;;;;;5033533;28;20206;-57
2022/03/20 08:35:57;;;;;;;20.50;15.77;;;11.70;82.60;;;;;;5034444;28;20297;-57
2022/03/20 08:38:24;;;;;;;21.93;14.93;;;11.60;82.50;;;;;;5034366;28;20249;-58
2022/03/20 08:40:51;;;;;;;21.30;16.30;;;11.60;82.60;;;;;;5034511;28;20233;-58
2022/03/20 08:43:17;;;;;;;18.80;15.40;;;11.70;82.90;;;;;;5034417;28;20213;-57
2022/03/20 08:45:46;;;;;;;21.27;16.00;;;11.80;82.50;;;;;;5034216;28;20217;-58
2022/03/20 08:48:13;;;;;;;21.33;16.57;;;11.90;82.30;;;;;;5034217;28;20205;-58
2022/03/20 08:50:40;;;;;;;19.50;15.67;;;11.70;82.50;;;;;;5034208;28;20234;-58
2022/03/20 08:53:06;;;;;;;20.20;16.03;;;11.70;83.00;;;;;;5034329;28;20217;-58
2022/03/20 08:55:34;;;;;;;19.03;15.20;;;11.70;82.50;;;;;;5034620;28;20202;-58
2022/03/20 08:58:01;;;;;;;18.10;14.67;;;11.80;82.60;;;;;;5034424;28;20230;-58
2022/03/20 09:00:29;;;;;;;20.93;15.00;;;11.90;81.60;;;;;;5034404;28;20233;-58
2022/03/20 09:02:57;;;;;;;18.97;15.63;;;11.90;81.80;;;;;;5033990;28;20244;-57
2022/03/20 09:05:23;;;;;;;19.87;15.23;;;11.90;81.90;;;;;;5034035;28;20228;-57
2022/03/20 09:07:51;;;;;;;20.53;15.53;;;12.00;82.00;;;;;;5033894;28;20256;-57
2022/03/20 09:10:18;;;;;;;19.93;15.60;;;12.10;81.20;;;;;;5033825;28;20317;-57
2022/03/20 09:12:46;;;;;;;20.33;15.33;;;12.20;80.60;;;;;;5033880;28;20634;-57
2022/03/20 09:15:14;;;;;;;22.00;16.77;;;12.30;80.40;;;;;;5033539;28;20267;-57
2022/03/20 09:20:27;;;;;;;19.57;15.13;;;12.70;80.00;;;;;;5033649;28;20746;-57
2022/03/20 09:22:53;;;;;;;18.33;14.70;;;13.00;79.00;;;;;;5033294;28;20603;-57
2022/03/20 09:25:20;;;;;;;19.87;15.90;;;13.10;79.20;;;;;;5033687;28;20210;-58
2022/03/20 09:27:48;;;;;;;24.20;16.30;;;13.10;79.30;;;;;;5033245;28;20210;-57
2022/03/20 09:30:15;;;;;;;21.20;16.53;;;13.10;79.00;;;;;;5033351;28;20216;-58
2022/03/20 09:32:42;;;;;;;20.77;16.03;;;13.10;79.20;;;;;;5033508;28;20210;-58
2022/03/20 09:35:09;;;;;;;20.20;15.20;;;13.20;78.80;;;;;;5033512;28;20210;-57
2022/03/20 09:37:37;;;;;;;19.63;16.27;;;13.30;78.50;;;;;;5033620;28;20268;-59
2022/03/20 09:40:06;;;;;;;19.03;15.77;;;13.30;78.70;;;;;;5033318;28;20206;-58
2022/03/20 09:42:34;;;;;;;21.13;16.23;;;13.30;78.10;;;;;;5032824;28;20238;-58
2022/03/20 09:45:01;;;;;;;19.33;15.50;;;13.30;78.10;;;;;;5033230;28;20233;-58
2022/03/20 09:47:27;;;;;;;19.10;14.90;;;13.50;78.10;;;;;;5033309;28;20202;-57
2022/03/20 09:49:56;;;;;;;18.30;15.17;;;13.60;78.10;;;;;;5033119;28;20237;-57
2022/03/20 09:52:23;;;;;;;20.27;15.23;;;13.70;77.60;;;;;;5032712;28;20265;-57
2022/03/20 09:54:51;;;;;;;19.63;15.50;;;13.80;77.00;;;;;;5032807;28;20238;-58
2022/03/20 09:57:19;;;;;;;19.13;15.50;;;13.90;77.40;;;;;;5032611;28;20202;-57
2022/03/20 09:59:46;;;;;;;16.77;14.30;;;14.20;77.00;;;;;;5032867;28;20206;-57
2022/03/20 10:02:13;;;;;;;19.30;15.53;;;14.30;76.90;;;;;;5032426;28;20237;-57
2022/03/20 10:04:53;;;;;;;21.93;16.17;;;14.50;75.40;;;;;;5033065;28;20260;-58
2022/03/20 10:07:24;;;;;;;17.43;14.37;;;14.80;75.00;;;;;;5032803;28;20214;-57
2022/03/20 10:10:16;;;;;;;19.07;14.53;;;15.00;75.00;;;;;;5033047;28;20673;-57
2022/03/20 10:12:44;;;;;;;19.17;15.10;;;15.00;73.70;;;;;;5032463;28;20210;-57
2022/03/20 10:15:26;;;;;;;22.13;14.37;;;15.10;73.40;;;;;;5032423;28;20214;-57
2022/03/20 10:18:06;;;;;;;16.87;14.30;;;15.20;74.10;;;;;;5032214;28;20233;-57
2022/03/20 10:20:36;;;;;;;21.30;16.07;;;15.40;72.20;;;;;;5032467;28;20237;-57
2022/03/20 10:23:03;;;;;;;17.67;13.80;;;15.60;72.10;;;;;;5032242;28;20213;-58
2022/03/20 10:25:31;;;;;;;18.73;14.03;;;15.70;71.20;;;;;;5032353;28;20236;-57
2022/03/20 10:28:00;;;;;;;17.33;13.90;;;15.80;69.90;;;;;;5032204;28;20237;-57
2022/03/20 10:30:27;;;;;;;17.77;14.23;;;15.90;70.00;;;;;;5032002;28;20226;-57
2022/03/20 10:32:53;;;;;;;23.43;14.23;;;16.20;68.30;;;;;;5032240;28;20206;-57
2022/03/20 10:35:20;;;;;;;18.20;14.07;;;16.40;68.10;;;;;;5032071;28;20574;-57
2022/03/20 10:37:53;;;;;;;21.07;15.03;;;16.60;68.10;;;;;;5032196;28;20280;-58
2022/03/20 10:40:22;;;;;;;17.47;14.50;;;16.70;69.00;;;;;;5031768;28;20214;-57
2022/03/20 10:43:11;;;;;;;24.77;14.40;;;17.00;68.30;;;;;;5032404;28;20217;-57
2022/03/20 10:45:57;;;;;;;19.43;14.87;;;17.20;68.50;;;;;;5032214;28;20206;-57
2022/03/20 10:48:33;;;;;;;19.33;15.03;;;17.00;68.90;;;;;;5032103;28;20198;-57
2022/03/20 10:51:01;;;;;;;18.40;14.67;;;16.90;68.70;;;;;;5032609;28;20276;-57
2022/03/20 10:53:28;;;;;;;19.93;14.67;;;16.80;69.70;;;;;;5032624;28;20210;-57
2022/03/20 10:55:58;;;;;;;21.33;15.97;;;16.70;70.20;;;;;;5031905;28;20210;-58
2022/03/20 10:58:26;;;;;;;17.43;15.10;;;16.80;69.40;;;;;;5032303;28;20226;-58
2022/03/20 11:00:56;;;;;;;19.30;15.33;;;16.70;69.90;;;;;;5032358;28;20741;-58
2022/03/20 11:03:24;;;;;;;20.73;15.65;;;16.90;70.00;;;;;;5032064;28;20587;-58
2022/03/20 11:05:51;;;;;;;19.23;14.90;;;17.30;69.60;;;;;;5031911;28;20206;-58
2022/03/20 11:08:19;;;;;;;22.10;15.45;;;17.60;69.00;;;;;;5032109;28;20213;-59
2022/03/20 11:10:48;;;;;;;18.33;14.43;;;17.90;68.90;;;;;;5032348;28;20413;-59
2022/03/20 11:13:16;;;;;;;21.33;15.05;;;17.80;68.50;;;;;;5032244;28;20210;-57
2022/03/20 11:15:46;;;;;;;22.40;15.73;;;17.80;69.10;;;;;;5032189;28;20322;-57
2022/03/20 11:18:16;;;;;;;18.38;15.43;;;17.80;68.60;;;;;;5021086;28;20644;-56
2022/03/20 11:20:46;;;;;;;20.75;15.10;;;17.60;69.00;;;;;;5011769;28;20326;-58
2022/03/20 11:23:14;;;;;;;20.48;15.75;;;17.40;69.00;;;;;;5012352;28;20243;-61
2022/03/20 11:25:45;;;;;;;32.08;26.85;;;17.40;70.00;;;;;;5012715;28;20298;-62
2022/03/20 11:28:13;;;;;;;19.03;15.43;;;17.40;69.70;;;;;;5012592;28;20217;-60
2022/03/20 11:30:40;;;;;;;21.40;16.40;;;17.30;70.00;;;;;;5014403;28;20235;-61
2022/03/20 11:33:10;;;;;;;23.00;15.47;;;17.20;70.20;;;;;;5011198;28;20210;-61
2022/03/20 11:35:38;;;;;;;20.65;15.10;;;17.20;70.00;;;;;;5007188;28;20651;-63
2022/03/20 11:38:16;;;;;;;21.35;14.05;;;17.40;70.00;;;;;;5012351;28;20233;-61
2022/03/20 11:41:09;;;;;;;21.38;15.40;;;17.70;69.40;;;;;;5012527;28;20269;-62
2022/03/20 11:43:37;;;;;;;20.70;14.77;;;17.60;69.50;;;;;;5011872;28;20222;-62
2022/03/20 11:46:25;;;;;;;19.20;14.52;;;17.70;69.60;;;;;;5012516;28;20331;-62
2022/03/20 11:49:22;;;;;;;21.38;15.48;;;17.80;70.40;;;;;;5012862;28;20290;-63
2022/03/20 11:51:54;;;;;;;20.02;15.90;;;17.70;70.80;;;;;;5012193;28;20737;-62
2022/03/20 11:54:21;;;;;;;21.10;14.45;;;17.70;70.20;;;;;;5012631;28;20203;-64
2022/03/20 11:56:48;;;;;;;19.50;16.02;;;17.80;69.90;;;;;;5012749;28;20224;-62
2022/03/20 11:59:45;;;;;;;21.25;14.90;;;17.80;70.10;;;;;;5012271;28;20227;-62
2022/03/20 12:02:15;;;;;;;19.35;14.15;;;17.80;70.00;;;;;;5011846;28;20608;-63
2022/03/20 12:04:57;;;;;;;19.42;14.70;;;17.80;69.50;;;;;;5012099;28;20289;-56
2022/03/20 12:07:32;;;;;;;20.40;15.05;;;18.00;69.50;;;;;;5014478;28;20265;-57
2022/03/20 12:10:10;;;;;;;21.45;15.18;;;18.30;69.10;;;;;;5015007;28;20214;-56
2022/03/20 12:13:04;;;;;;;18.58;14.60;;;18.70;68.80;;;;;;5014766;28;20207;-57
2022/03/20 12:15:31;;;;;;;20.52;14.68;;;18.90;68.00;;;;;;5015061;28;20206;-57
2022/03/20 12:18:00;;;;;;;23.45;14.55;;;19.00;67.80;;;;;;5015076;28;20592;-58
2022/03/20 12:21:02;;;;;;;20.77;14.27;;;18.90;67.20;;;;;;5014540;28;20258;-57
2022/03/20 12:23:33;;;;;;;20.27;14.68;;;19.00;66.80;;;;;;5014798;28;20206;-56
2022/03/20 12:26:24;;;;;;;19.92;13.73;;;19.00;66.30;;;;;;5014928;28;20211;-57
2022/03/20 12:28:50;;;;;;;25.30;14.05;;;18.80;66.10;;;;;;5014821;28;20203;-57
2022/03/20 12:31:26;;;;;;;17.55;14.02;;;18.70;66.90;;;;;;5014554;28;20238;-57
2022/03/20 12:34:20;;;;;;;18.15;14.43;;;18.70;66.40;;;;;;5014371;28;20230;-57
2022/03/20 12:36:49;;;;;;;21.33;14.07;;;18.90;65.90;;;;;;5014791;28;20249;-57
2022/03/20 12:39:49;;;;;;;17.63;14.35;;;18.80;65.60;;;;;;5014757;28;20227;-57
2022/03/20 12:42:18;;;;;;;18.80;14.77;;;18.60;66.00;;;;;;5014558;28;20503;-57
2022/03/20 12:44:46;;;;;;;17.38;14.23;;;18.40;66.20;;;;;;5014545;28;20560;-57
2022/03/20 12:47:13;;;;;;;16.90;13.25;;;18.40;66.30;;;;;;5015031;28;20261;-57
2022/03/20 12:49:42;;;;;;;19.67;14.32;;;18.50;67.10;;;;;;5014619;28;20211;-58
2022/03/20 12:52:12;;;;;;;17.77;13.57;;;18.70;66.50;;;;;;5014321;28;20254;-57
2022/03/20 12:54:39;;;;;;;19.65;14.20;;;18.80;66.70;;;;;;5014465;28;20214;-58
2022/03/20 12:57:06;;;;;;;19.52;13.98;;;18.90;66.00;;;;;;5014045;28;20328;-57
2022/03/20 12:59:32;;;;;;;20.40;13.75;;;19.00;65.50;;;;;;5014136;28;20637;-57
2022/03/20 13:02:06;;;;;;;18.00;13.05;;;19.10;65.40;;;;;;5014264;28;20233;-58
2022/03/20 13:04:32;;;;;;;20.50;13.30;;;19.00;65.10;;;;;;5014034;28;20507;-58
2022/03/20 13:06:59;;;;;;;20.20;13.40;;;19.10;64.90;;;;;;5014267;28;20215;-57
2022/03/20 13:09:27;;;;;;;19.27;13.35;;;19.10;65.10;;;;;;5014367;28;20211;-57
2022/03/20 13:12:00;;;;;;;19.58;13.15;;;18.90;64.90;;;;;;5013857;28;20337;-57
2022/03/20 13:14:27;;;;;;;20.05;13.95;;;19.00;64.90;;;;;;5014594;28;20214;-62
2022/03/20 13:16:56;;;;;;;24.10;13.27;;;18.90;65.90;;;;;;5013723;28;20211;-62